Aurelius, New York
Current Conditions -  °F | °C
As of 3:54 PM on Tuesday 27 Jan 2015 (Local Time) from KSYR Reporting Station
Broken Clouds Broken Clouds  
Wind Chill: -4°   Ceiling: 19000
Heat Index: 13°   Visibility: 10mi
Dew Point:   Wind: 17mph
Humidity: 59%   Direction: 310°NW
Pressure: 29.96"   Gusts: NA
Location:  42.9235°N, 76.5525°W
Report Text: KSYR 272054Z 31015KT 10SM SCT170 BKN190 M11/M17 A2996 RMK AO2 SLP150 SCT V BKN T11061172 53014 $
Loading
Personal Weather Stations






























Interactive Weather Map New forecast layout! Learn more

10-Day Weather Forecast

Advertisements
Track Severe Weather on mobile